Time;durP1;ratioP1;P1;durP2;ratioP2;P2;SDS_P1;SDS_P2;PMS_P1;PMS_P2;Temp;Humidity;BMP_temperature;BMP_pressure;BME280_temperature;BME280_humidity;BME280_pressure;Samples;Min_cycle;Max_cycle;Signal;HPM_P1;HPM_P2
2022/05/02 00:00:20;;;;;;;;;;;;;;;17.68;44.16;102317.47;4974136;28;19914;-78
2022/05/02 00:02:46;;;;;;;;;;;;;;;17.68;43.99;102306.16;4990507;28;19914;-78
2022/05/02 00:05:11;;;;;;;;;;;;;;;17.68;44.26;102306.16;4973153;28;19916;-78
2022/05/02 00:07:36;;;;;;;;;;;;;;;17.67;44.30;102307.91;4974157;28;19918;-78
2022/05/02 00:10:02;;;;;;;;;;;;;;;17.67;44.18;102309.63;4988015;28;19918;-78
2022/05/02 00:12:28;;;;;;;;;;;;;;;17.67;44.19;102307.91;4957550;28;19919;-79
2022/05/02 00:14:53;;;;;;;;;;;;;;;17.66;44.04;102310.50;4973629;28;19946;-79
2022/05/02 00:17:18;;;;;;;;;;;;;;;17.68;44.01;102311.38;4973186;28;19918;-79
2022/05/02 00:19:43;;;;;;;;;;;;;;;17.66;44.08;102308.78;4989125;28;19922;-79
2022/05/02 00:22:08;;;;;;;;;;;;;;;17.66;44.21;102308.78;4990535;28;19915;-79
2022/05/02 00:24:34;;;;;;;;;;;;;;;17.67;44.18;102309.63;4973383;28;19925;-79
2022/05/02 00:26:59;;;;;;;;;;;;;;;17.65;43.94;102296.59;4973637;28;19925;-78
2022/05/02 00:29:24;;;;;;;;;;;;;;;17.66;44.19;102293.16;4973930;28;19941;-79
2022/05/02 00:31:50;;;;;;;;;;;;;;;17.65;44.19;102294.00;4972614;28;19972;-79
2022/05/02 00:34:15;;;;;;;;;;;;;;;17.66;44.12;102300.09;4955929;28;19918;-79
2022/05/02 00:36:40;;;;;;;;;;;;;;;17.65;44.24;102288.78;4988355;28;19921;-79
2022/05/02 00:39:06;;;;;;;;;;;;;;;17.65;44.20;102290.53;4986843;28;20261;-78
2022/05/02 00:41:31;;;;;;;;;;;;;;;17.65;44.25;102285.31;4989226;28;19914;-78
2022/05/02 00:43:56;;;;;;;;;;;;;;;17.64;44.20;102292.25;4973439;28;19942;-79
2022/05/02 00:46:23;;;;;;;;;;;;;;;17.64;44.11;102289.66;4972082;28;19918;-79
2022/05/02 00:48:48;;;;;;;;;;;;;;;17.64;44.19;102284.44;4972864;28;19919;-79
2022/05/02 00:51:14;;;;;;;;;;;;;;;17.63;44.27;102290.50;4986857;28;19922;-78
2022/05/02 00:53:40;;;;;;;;;;;;;;;17.63;44.30;102280.06;4989731;28;19957;-79
2022/05/02 00:56:06;;;;;;;;;;;;;;;17.64;44.20;102287.06;4957734;28;19941;-79
2022/05/02 00:58:32;;;;;;;;;;;;;;;17.63;44.03;102281.81;4991004;28;19914;-79
2022/05/02 01:00:57;;;;;;;;;;;;;;;17.63;44.04;102284.41;4989547;28;20084;-78
2022/05/02 01:03:22;;;;;;;;;;;;;;;17.61;44.22;102281.78;4988728;28;19924;-78
2022/05/02 01:08:32;;;;;;;;;;;;;;;17.61;44.22;102268.78;4980528;28;19945;-78
2022/05/02 01:10:58;;;;;;;;;;;;;;;17.62;44.10;102275.75;4976193;28;19914;-79
2022/05/02 01:13:43;;;;;;;;;;;;;;;17.61;44.25;102273.97;4973657;28;19918;-79
2022/05/02 01:16:09;;;;;;;;;;;;;;;17.61;44.09;102270.50;4990126;28;19921;-79
2022/05/02 01:18:34;;;;;;;;;;;;;;;17.61;44.25;102273.09;4990304;28;20357;-78
2022/05/02 01:20:59;;;;;;;;;;;;;;;17.61;44.07;102265.28;4973248;28;20365;-78
2022/05/02 01:23:25;;;;;;;;;;;;;;;17.61;44.22;102271.38;4990117;28;19914;-79
2022/05/02 01:25:50;;;;;;;;;;;;;;;17.60;44.33;102272.25;4973491;28;19925;-79
2022/05/02 01:28:15;;;;;;;;;;;;;;;17.60;44.28;102269.63;4973186;28;20013;-78
2022/05/02 01:30:40;;;;;;;;;;;;;;;17.60;44.08;102271.38;4990759;28;19918;-79
2022/05/02 01:33:05;;;;;;;;;;;;;;;17.60;44.29;102268.78;4972373;28;19925;-78
2022/05/02 01:35:31;;;;;;;;;;;;;;;17.59;44.20;102267.00;4972125;28;19994;-79
2022/05/02 01:37:56;;;;;;;;;;;;;;;17.58;44.17;102265.28;4974121;28;19918;-79
2022/05/02 01:40:21;;;;;;;;;;;;;;;17.57;44.34;102261.81;4973769;28;19918;-79
2022/05/02 01:42:46;;;;;;;;;;;;;;;17.58;44.24;102266.13;4989928;28;20431;-79
2022/05/02 01:45:12;;;;;;;;;;;;;;;17.58;44.26;102265.28;4973853;28;19922;-79
2022/05/02 03:57:50;;;;;;;;;;;;;;;17.42;44.00;102220.81;5311995;23;19934;-79
2022/05/02 04:00:16;;;;;;;;;;;;;;;17.42;44.20;102228.63;4968345;29;19927;-78
2022/05/02 04:02:41;;;;;;;;;;;;;;;17.42;44.16;102220.81;4966810;29;19925;-78
2022/05/02 04:05:07;;;;;;;;;;;;;;;17.43;44.08;102224.28;4966629;29;19919;-78
2022/05/02 04:07:33;;;;;;;;;;;;;;;17.41;43.92;102226.00;4968089;28;19915;-78
2022/05/02 04:09:58;;;;;;;;;;;;;;;17.41;44.03;102220.78;4954823;29;19922;-78
2022/05/02 04:12:23;;;;;;;;;;;;;;;17.41;44.00;102226.88;4953523;29;19919;-77
2022/05/02 04:14:49;;;;;;;;;;;;;;;17.41;44.04;102223.41;4953311;29;19985;-79
2022/05/02 04:17:14;;;;;;;;;;;;;;;17.41;43.98;102224.25;4954509;29;19922;-78
2022/05/02 04:19:39;;;;;;;;;;;;;;;17.41;44.10;102224.25;4953369;29;19918;-78
2022/05/02 04:22:05;;;;;;;;;;;;;;;17.40;43.80;102219.94;4967449;29;19923;-78
2022/05/02 04:24:30;;;;;;;;;;;;;;;17.42;43.88;102220.81;4954395;28;19914;-78
2022/05/02 04:26:56;;;;;;;;;;;;;;;17.41;44.07;102229.47;4972087;28;20348;-78
2022/05/02 04:29:22;;;;;;;;;;;;;;;17.41;43.98;102228.59;4972281;28;19922;-78
2022/05/02 04:31:47;;;;;;;;;;;;;;;17.40;43.99;102232.06;4962029;29;19993;-78
2022/05/02 04:34:12;;;;;;;;;;;;;;;17.40;44.10;102226.88;4953403;29;20438;-78
2022/05/02 04:36:38;;;;;;;;;;;;;;;17.40;43.90;102225.13;4937157;29;19918;-78
2022/05/02 04:39:03;;;;;;;;;;;;;;;17.39;43.83;102217.28;4935223;29;19925;-78
2022/05/02 04:41:28;;;;;;;;;;;;;;;17.39;44.01;102225.97;4951007;29;19918;-78
2022/05/02 04:43:54;;;;;;;;;;;;;;;17.40;44.06;102232.94;4934676;29;19922;-78
2022/05/02 04:46:19;;;;;;;;;;;;;;;17.40;44.08;102230.34;4935585;29;19924;-78
2022/05/02 04:48:45;;;;;;;;;;;;;;;17.41;44.00;102228.59;4968622;29;19918;-78
2022/05/02 04:51:10;;;;;;;;;;;;;;;17.40;44.11;102235.53;4950949;29;20396;-78
2022/05/02 04:53:36;;;;;;;;;;;;;;;17.40;43.96;102227.75;4935604;29;20049;-78
2022/05/02 04:56:02;;;;;;;;;;;;;;;17.40;43.80;102227.75;4952854;29;19925;-78
2022/05/02 04:58:27;;;;;;;;;;;;;;;17.40;44.08;102230.34;4962710;28;19923;-78
2022/05/02 05:00:52;;;;;;;;;;;;;;;17.41;43.90;102228.59;4954937;28;19925;-78
2022/05/02 05:03:18;;;;;;;;;;;;;;;17.40;43.98;102232.94;4970657;28;19914;-78
2022/05/02 05:05:43;;;;;;;;;;;;;;;17.41;43.90;102226.00;4968695;28;20312;-78
2022/05/02 05:08:09;;;;;;;;;;;;;;;17.41;43.95;102228.59;4968970;28;19918;-78
2022/05/02 05:10:53;;;;;;;;;;;;;;;17.41;43.83;102226.88;4968794;28;19920;-78
2022/05/02 05:13:22;;;;;;;;;;;;;;;17.41;44.07;102232.06;4970454;28;19920;-78
2022/05/02 05:19:10;;;;;;;;;;;;;;;17.46;43.84;102229.53;4989451;28;19982;-78
2022/05/02 05:21:53;;;;;;;;;;;;;;;17.48;43.79;102228.72;4970673;28;19918;-78
2022/05/02 05:24:35;;;;;;;;;;;;;;;17.52;43.98;102229.63;4972100;28;19921;-78
2022/05/02 05:27:12;;;;;;;;;;;;;;;17.58;43.82;102231.44;4971386;28;19914;-79
2022/05/02 05:29:43;;;;;;;;;;;;;;;17.59;43.74;102230.56;4971954;28;19918;-78
2022/05/02 05:32:28;;;;;;;;;;;;;;;17.63;43.66;102227.16;4969549;28;20021;-78
2022/05/02 05:35:04;;;;;;;;;;;;;;;17.64;43.63;102229.78;4984827;28;19921;-79
2022/05/02 05:37:48;;;;;;;;;;;;;;;17.66;43.72;102228.06;4967088;28;19915;-79
2022/05/02 05:40:32;;;;;;;;;;;;;;;17.70;43.63;102231.56;4967071;28;19914;-79
2022/05/02 05:43:16;;;;;;;;;;;;;;;17.72;43.76;102236.78;4967100;28;19921;-80
2022/05/02 05:45:42;;;;;;;;;;;;;;;17.74;43.65;102230.75;4967730;28;19919;-79
2022/05/02 05:48:10;;;;;;;;;;;;;;;17.76;43.60;102233.38;4965533;28;19971;-79
2022/05/02 05:50:42;;;;;;;;;;;;;;;17.78;43.59;102240.34;4966770;28;19915;-79
2022/05/02 05:53:26;;;;;;;;;;;;;;;17.80;43.77;102243.84;4967921;28;20005;-79
2022/05/02 05:56:06;;;;;;;;;;;;;;;17.83;43.61;102243.03;4966646;28;19914;-79
2022/05/02 05:58:31;;;;;;;;;;;;;;;17.85;43.56;102239.59;4983858;28;19989;-78
2022/05/02 06:01:09;;;;;;;;;;;;;;;17.86;43.57;102241.34;4983738;28;19914;-78
2022/05/02 06:03:37;;;;;;;;;;;;;;;17.91;43.48;102240.53;4966959;28;19921;-78
2022/05/02 06:06:02;;;;;;;;;;;;;;;17.92;43.33;102240.56;4966526;28;20404;-78
2022/05/02 06:08:29;;;;;;;;;;;;;;;17.94;43.14;102237.97;4950352;28;19922;-78
2022/05/02 06:10:56;;;;;;;;;;;;;;;17.96;43.29;102246.66;4982978;28;19997;-78
2022/05/02 06:13:22;;;;;;;;;;;;;;;17.96;43.21;102247.53;4965961;28;19942;-77
2022/05/02 06:18:35;;;;;;;;;;;;;;;18.01;43.25;102242.41;4983422;28;19960;-78
2022/05/02 06:21:02;;;;;;;;;;;;;;;18.01;43.05;102242.41;4965576;28;20372;-78
2022/05/02 06:23:47;;;;;;;;;;;;;;;18.02;43.07;102242.38;4965986;28;19920;-78
2022/05/02 06:26:14;;;;;;;;;;;;;;;18.03;43.09;102238.94;4965536;28;19914;-78
2022/05/02 06:28:43;;;;;;;;;;;;;;;18.05;43.00;102244.16;4966819;28;19929;-78
2022/05/02 06:31:18;;;;;;;;;;;;;;;18.06;43.12;102244.19;4964640;28;19914;-79
2022/05/02 06:33:48;;;;;;;;;;;;;;;18.06;43.16;102238.09;4967825;28;19984;-79
2022/05/02 06:36:32;;;;;;;;;;;;;;;18.08;42.92;102241.59;4970810;28;19914;-78
2022/05/02 06:38:57;;;;;;;;;;;;;;;18.10;43.05;102242.50;4985415;28;19914;-78
2022/05/02 06:41:43;;;;;;;;;;;;;;;18.13;42.89;102241.66;4968256;28;19921;-79
2022/05/02 06:44:23;;;;;;;;;;;;;;;18.14;42.89;102238.16;4967213;28;19981;-78
2022/05/02 06:46:53;;;;;;;;;;;;;;;18.15;43.07;102239.94;4965064;28;20003;-78
2022/05/02 06:49:19;;;;;;;;;;;;;;;18.17;42.88;102240.81;4966254;28;20004;-78
2022/05/02 06:51:55;;;;;;;;;;;;;;;18.16;42.87;102250.38;4950037;28;20365;-78
2022/05/02 06:54:30;;;;;;;;;;;;;;;18.15;42.91;102248.59;4965883;28;19914;-78
2022/05/02 06:57:01;;;;;;;;;;;;;;;18.17;43.00;102251.25;4983353;28;19914;-79
2022/05/02 06:59:34;;;;;;;;;;;;;;;18.18;43.05;102243.44;4982156;28;19914;-78
2022/05/02 07:02:12;;;;;;;;;;;;;;;18.18;43.06;102247.75;4964923;28;19964;-79
2022/05/02 07:04:39;;;;;;;;;;;;;;;18.19;43.20;102246.94;4983359;28;19941;-78
2022/05/02 07:07:23;;;;;;;;;;;;;;;18.20;43.04;102246.91;4963737;28;19914;-78
2022/05/02 07:09:58;;;;;;;;;;;;;;;18.22;43.11;102242.59;4967908;28;19918;-78
2022/05/02 07:12:23;;;;;;;;;;;;;;;18.23;42.91;102243.50;4969128;28;20006;-78
2022/05/02 07:14:52;;;;;;;;;;;;;;;18.24;42.82;102242.63;4965834;28;19973;-78
2022/05/02 07:17:31;;;;;;;;;;;;;;;18.23;42.96;102241.75;4966940;28;19914;-78
2022/05/02 07:19:56;;;;;;;;;;;;;;;18.23;42.98;102241.75;4969847;28;20332;-78
2022/05/02 07:22:32;;;;;;;;;;;;;;;18.23;43.04;102243.50;4968063;28;19981;-78
2022/05/02 07:25:10;;;;;;;;;;;;;;;18.23;43.12;102243.50;4965548;28;19914;-78
2022/05/02 07:27:53;;;;;;;;;;;;;;;18.23;43.17;102241.75;4968605;28;19914;-78
2022/05/02 07:30:22;;;;;;;;;;;;;;;18.25;43.23;102240.03;4986015;28;19942;-77
2022/05/02 07:32:49;;;;;;;;;;;;;;;18.26;43.03;102236.56;4963528;28;19918;-78
2022/05/02 07:35:14;;;;;;;;;;;;;;;18.28;43.00;102236.59;4964202;28;20387;-78
2022/05/02 07:37:41;;;;;;;;;;;;;;;18.28;43.07;102242.66;4947624;28;19918;-78
2022/05/02 07:40:10;;;;;;;;;;;;;;;18.31;43.07;102244.41;4964216;28;19914;-78
2022/05/02 07:42:36;;;;;;;;;;;;;;;18.30;43.08;102243.56;4967323;28;20008;-78
2022/05/02 07:45:02;;;;;;;;;;;;;;;18.33;43.01;102241.84;4965005;28;20015;-78
2022/05/02 07:47:27;;;;;;;;;;;;;;;18.35;43.16;102240.13;4964939;28;19918;-78
2022/05/02 07:49:56;;;;;;;;;;;;;;;18.36;42.95;102241.88;4964771;28;20385;-78
2022/05/02 07:52:21;;;;;;;;;;;;;;;18.38;42.95;102245.34;4964736;28;19921;-78
2022/05/02 07:54:48;;;;;;;;;;;;;;;18.37;43.08;102244.47;4966001;28;19914;-78
2022/05/02 07:57:14;;;;;;;;;;;;;;;18.36;43.23;102250.56;4982292;28;19929;-78
2022/05/02 07:59:40;;;;;;;;;;;;;;;18.36;42.95;102239.28;4950410;28;19991;-78
2022/05/02 08:02:06;;;;;;;;;;;;;;;18.36;43.25;102244.50;4948883;28;19918;-78
2022/05/02 08:04:31;;;;;;;;;;;;;;;18.35;43.22;102246.19;4964331;28;20383;-78
2022/05/02 08:07:02;;;;;;;;;;;;;;;18.35;43.13;102246.19;4965227;28;19914;-78
2022/05/02 08:09:27;;;;;;;;;;;;;;;18.36;43.01;102247.09;4967037;28;19971;-78
2022/05/02 08:12:11;;;;;;;;;;;;;;;18.34;43.19;102249.69;4985468;28;19960;-78
2022/05/02 08:14:36;;;;;;;;;;;;;;;18.33;43.34;102242.69;4965075;28;20380;-78
2022/05/02 08:17:03;;;;;;;;;;;;;;;18.33;43.17;102241.84;4962673;28;19914;-78
2022/05/02 08:19:28;;;;;;;;;;;;;;;18.32;43.22;102247.94;4962524;28;19921;-78
2022/05/02 08:27:51;;;;;;;;;;;;;;;18.34;43.20;102243.59;4982331;28;20412;-78
2022/05/02 08:30:22;;;;;;;;;;;;;;;18.34;43.37;102244.47;4963317;28;19919;-78
2022/05/02 08:33:01;;;;;;;;;;;;;;;18.35;43.14;102245.34;4961686;28;19961;-78
2022/05/02 08:35:47;;;;;;;;;;;;;;;18.34;43.23;102248.81;4962276;28;19954;-78
2022/05/02 08:38:31;;;;;;;;;;;;;;;18.35;43.24;102242.72;4962128;28;19922;-79
2022/05/02 08:41:08;;;;;;;;;;;;;;;18.33;43.20;102242.69;4962499;28;19929;-78
2022/05/02 08:43:52;;;;;;;;;;;;;;;18.34;43.36;102241.00;4979919;28;20020;-78
2022/05/02 08:46:36;;;;;;;;;;;;;;;18.36;43.29;102247.09;4962987;28;19914;-78
2022/05/02 08:52:13;;;;;;;;;;;;;;;18.34;43.19;102238.38;4981640;28;19964;-78
2022/05/02 08:54:57;;;;;;;;;;;;;;;18.34;43.28;102238.38;4961458;28;19916;-78
2022/05/02 08:57:41;;;;;;;;;;;;;;;18.34;43.34;102241.00;4961196;28;19922;-79
2022/05/02 09:00:11;;;;;;;;;;;;;;;18.34;43.28;102238.38;4961449;28;19918;-79
2022/05/02 09:03:00;;;;;;;;;;;;;;;18.34;43.10;102238.38;4961363;28;19925;-78
2022/05/02 09:05:34;;;;;;;;;;;;;;;18.34;43.15;102238.38;4961281;28;19921;-78
2022/05/02 09:08:02;;;;;;;;;;;;;;;18.33;43.18;102237.50;4961687;28;19920;-78
2022/05/02 09:10:43;;;;;;;;;;;;;;;18.33;43.33;102234.88;4978730;28;19918;-78
2022/05/02 09:13:24;;;;;;;;;;;;;;;18.32;43.17;102234.91;4962060;28;19914;-78
2022/05/02 09:15:59;;;;;;;;;;;;;;;18.33;43.35;102242.69;4961910;28;19977;-78
2022/05/02 09:18:24;;;;;;;;;;;;;;;18.34;43.23;102238.38;4962016;28;19918;-78
2022/05/02 09:20:52;;;;;;;;;;;;;;;18.34;43.19;102227.97;4965131;28;20281;-78
2022/05/02 09:23:29;;;;;;;;;;;;;;;18.34;43.27;102235.78;4984547;28;19918;-79
2022/05/02 09:25:55;;;;;;;;;;;;;;;18.33;43.33;102229.69;4968728;28;19920;-79
2022/05/02 09:28:21;;;;;;;;;;;;;;;18.33;43.13;102221.84;4968601;28;19914;-79
2022/05/02 09:31:08;;;;;;;;;;;;;;;18.33;43.12;102223.59;4980414;28;20008;-78
2022/05/02 09:33:44;;;;;;;;;;;;;;;18.33;42.97;102231.41;4979867;28;19968;-78
2022/05/02 09:36:24;;;;;;;;;;;;;;;18.30;43.36;102220.09;4962834;28;19915;-78
2022/05/02 09:38:51;;;;;;;;;;;;;;;18.32;43.35;102224.47;4963177;28;19921;-78
2022/05/02 09:41:26;;;;;;;;;;;;;;;18.30;43.35;102216.63;4963711;28;20016;-78
2022/05/02 09:50:11;;;;;;;;;;;;;;;18.28;43.30;102218.34;4979918;28;19925;-78
2022/05/02 09:53:01;;;;;;;;;;;;;;;18.28;43.37;102216.59;4961159;28;20001;-78
2022/05/02 09:58:30;;;;;;;;;;;;;;;18.28;43.25;102216.59;4979484;28;19928;-78
2022/05/02 10:01:07;;;;;;;;;;;;;;;18.27;43.30;102216.63;4962692;28;20008;-78
2022/05/02 10:03:36;;;;;;;;;;;;;;;18.27;43.22;102211.41;4960925;28;19914;-79
2022/05/02 10:06:04;;;;;;;;;;;;;;;18.25;43.40;102213.97;4961097;28;19961;-78
2022/05/02 10:08:56;;;;;;;;;;;;;;;18.25;43.26;102213.13;4963639;28;20417;-80
2022/05/02 10:11:27;;;;;;;;;;;;;;;18.25;43.24;102211.38;4960202;28;19917;-79
2022/05/02 10:13:59;;;;;;;;;;;;;;;18.25;43.48;102211.38;4963582;28;19918;-79
2022/05/02 10:16:27;;;;;;;;;;;;;;;18.25;43.26;102210.50;4963898;28;19978;-79
2022/05/02 10:19:06;;;;;;;;;;;;;;;18.24;43.40;102204.41;4963053;28;20008;-78
2022/05/02 10:21:44;;;;;;;;;;;;;;;18.24;43.43;102198.31;4965194;28;19914;-79
2022/05/02 10:24:19;;;;;;;;;;;;;;;18.24;43.46;102200.94;4963703;28;19961;-78
2022/05/02 10:26:52;;;;;;;;;;;;;;;18.24;43.31;102201.78;4980231;28;19941;-79
2022/05/02 10:29:33;;;;;;;;;;;;;;;18.24;43.36;102199.19;4961861;28;19929;-79
2022/05/02 10:32:17;;;;;;;;;;;;;;;18.23;43.60;102200.06;4962599;28;19920;-79
2022/05/02 10:34:45;;;;;;;;;;;;;;;18.24;43.34;102198.31;4961436;28;19915;-78
2022/05/02 10:37:13;;;;;;;;;;;;;;;18.23;43.32;102194.84;4961509;28;20013;-78
2022/05/02 10:39:47;;;;;;;;;;;;;;;18.23;43.27;102191.38;4961702;28;19981;-78
2022/05/02 10:42:19;;;;;;;;;;;;;;;18.23;43.33;102187.03;4962510;28;19914;-78
2022/05/02 10:44:44;;;;;;;;;;;;;;;18.23;43.41;102191.38;4962756;28;20270;-78
2022/05/02 10:47:11;;;;;;;;;;;;;;;18.23;43.42;102192.25;4977703;28;19920;-79
2022/05/02 10:49:56;;;;;;;;;;;;;;;18.23;43.40;102200.06;4960596;28;20008;-78
2022/05/02 10:52:32;;;;;;;;;;;;;;;18.24;43.43;102191.38;4962539;28;19918;-79
2022/05/02 10:55:02;;;;;;;;;;;;;;;18.23;43.42;102187.03;4959589;28;20361;-80
2022/05/02 10:57:41;;;;;;;;;;;;;;;18.23;43.51;102189.63;4976859;28;19922;-78
2022/05/02 11:00:10;;;;;;;;;;;;;;;18.23;43.58;102194.00;4960777;28;19918;-78
2022/05/02 11:03:05;;;;;;;;;;;;;;;18.22;43.37;102187.88;4961277;28;19961;-78
2022/05/02 11:05:49;;;;;;;;;;;;;;;18.23;43.43;102181.81;4909748;28;19915;-78
2022/05/02 11:08:19;;;;;;;;;;;;;;;18.22;43.54;102190.47;4960982;28;19997;-78
2022/05/02 11:10:58;;;;;;;;;;;;;;;18.23;43.42;102197.47;4961602;28;19941;-78
2022/05/02 11:13:26;;;;;;;;;;;;;;;18.23;43.38;102184.44;4960687;28;19918;-79
2022/05/02 11:15:58;;;;;;;;;;;;;;;18.23;43.55;102187.03;4980070;28;19914;-78
2022/05/02 11:21:39;;;;;;;;;;;;;;;18.23;43.66;102188.78;4987738;28;20387;-78
2022/05/02 11:24:17;;;;;;;;;;;;;;;18.23;43.38;102187.03;4967291;28;19918;-80
2022/05/02 11:26:44;;;;;;;;;;;;;;;18.23;43.67;102178.34;4967286;28;20016;-78
2022/05/02 11:29:28;;;;;;;;;;;;;;;18.23;43.58;102178.34;4983221;28;19986;-78
2022/05/02 11:31:53;;;;;;;;;;;;;;;18.23;43.58;102173.16;4983469;28;20488;-80
2022/05/02 11:34:33;;;;;;;;;;;;;;;18.23;43.73;102176.63;4965927;28;19961;-78
2022/05/02 11:36:59;;;;;;;;;;;;;;;18.24;43.36;102172.28;4965966;28;20380;-78
2022/05/02 11:39:43;;;;;;;;;;;;;;;18.23;43.66;102171.41;4956742;28;19941;-79
2022/05/02 11:42:13;;;;;;;;;;;;;;;18.23;43.54;102173.16;4974969;28;19944;-79
2022/05/02 11:44:46;;;;;;;;;;;;;;;18.23;43.43;102168.78;4974970;28;19949;-79
2022/05/02 11:47:15;;;;;;;;;;;;;;;18.23;43.51;102166.19;4973271;28;19914;-79
2022/05/02 11:49:50;;;;;;;;;;;;;;;18.24;43.36;102165.31;4975321;28;19997;-79
2022/05/02 11:52:26;;;;;;;;;;;;;;;18.24;43.48;102162.72;4978479;28;19985;-80
2022/05/02 11:54:55;;;;;;;;;;;;;;;18.25;43.42;102167.09;4975516;28;20420;-79
2022/05/02 11:57:25;;;;;;;;;;;;;;;18.25;43.38;102163.59;4971911;28;19914;-78
2022/05/02 12:00:05;;;;;;;;;;;;;;;18.25;43.28;102161.88;4968806;28;19921;-79
2022/05/02 12:02:31;;;;;;;;;;;;;;;18.26;43.28;102160.13;4968071;28;19939;-80
2022/05/02 12:04:57;;;;;;;;;;;;;;;18.26;43.38;102160.13;4967568;28;19918;-79
2022/05/02 12:07:28;;;;;;;;;;;;;;;18.26;43.25;102154.91;4951671;28;19965;-78
2022/05/02 12:10:13;;;;;;;;;;;;;;;18.27;43.19;102164.50;4968864;28;20348;-78
2022/05/02 12:12:47;;;;;;;;;;;;;;;18.27;43.22;102159.28;4970576;28;20022;-78
2022/05/02 12:15:12;;;;;;;;;;;;;;;18.28;43.41;102172.31;4975720;28;19921;-78
2022/05/02 12:17:50;;;;;;;;;;;;;;;18.27;43.21;102159.28;4955762;28;19918;-78
2022/05/02 12:20:26;;;;;;;;;;;;;;;18.28;43.18;102150.59;4969451;28;20389;-78
2022/05/02 12:22:56;;;;;;;;;;;;;;;18.28;43.28;102154.06;4953497;28;20393;-78
2022/05/02 12:25:23;;;;;;;;;;;;;;;18.28;43.24;102151.47;4967716;28;20001;-78
2022/05/02 12:27:49;;;;;;;;;;;;;;;18.29;43.31;102158.44;4964935;28;19921;-78
2022/05/02 12:30:15;;;;;;;;;;;;;;;18.30;43.29;102141.06;4964813;28;20269;-78
2022/05/02 12:32:41;;;;;;;;;;;;;;;18.32;43.23;102141.06;4948273;28;19918;-78
2022/05/02 12:35:07;;;;;;;;;;;;;;;18.30;43.28;102146.28;4963989;28;19914;-78
2022/05/02 12:37:34;;;;;;;;;;;;;;;18.31;43.16;102140.19;4948130;28;19946;-78
2022/05/02 12:39:59;;;;;;;;;;;;;;;18.30;43.28;102147.13;4963946;28;20281;-78
2022/05/02 12:42:25;;;;;;;;;;;;;;;18.33;43.33;102148.03;4963333;28;19921;-78
2022/05/02 12:44:57;;;;;;;;;;;;;;;18.32;43.30;102141.06;4946884;28;19918;-78
2022/05/02 12:47:23;;;;;;;;;;;;;;;18.33;43.27;102138.47;4962672;28;20290;-78
2022/05/02 12:49:54;;;;;;;;;;;;;;;18.34;43.09;102145.44;4961487;28;19918;-78
2022/05/02 12:52:20;;;;;;;;;;;;;;;18.35;42.98;102136.75;4961662;28;19914;-79
2022/05/02 12:54:49;;;;;;;;;;;;;;;18.35;43.06;102135.88;4945606;28;19937;-79
2022/05/02 13:02:50;;;;;;;;;;;;;;;18.38;43.20;102128.06;4964253;28;19941;-78
2022/05/02 13:05:17;;;;;;;;;;;;;;;18.40;42.92;102140.28;4961419;28;19914;-78
2022/05/02 13:07:44;;;;;;;;;;;;;;;18.40;43.17;102134.16;4944746;28;20013;-78
2022/05/02 13:10:18;;;;;;;;;;;;;;;18.40;43.16;102127.25;4978340;28;19918;-78
2022/05/02 13:13:00;;;;;;;;;;;;;;;18.41;43.22;102122.91;4978456;28;20004;-78
2022/05/02 13:15:29;;;;;;;;;;;;;;;18.42;43.17;102122.03;4961087;28;19915;-79
2022/05/02 13:17:59;;;;;;;;;;;;;;;18.42;43.21;102116.81;4960431;28;19914;-79
2022/05/02 13:20:28;;;;;;;;;;;;;;;18.43;43.22;102118.56;4977812;28;19973;-79
2022/05/02 13:23:02;;;;;;;;;;;;;;;18.44;43.13;102115.09;4960903;28;19915;-79
2022/05/02 13:25:46;;;;;;;;;;;;;;;18.44;43.06;102113.38;4960336;28;19914;-79
2022/05/02 13:28:22;;;;;;;;;;;;;;;18.45;43.04;102116.84;4960353;28;19914;-79
2022/05/02 13:30:51;;;;;;;;;;;;;;;18.46;43.10;102105.56;4977636;28;19918;-78
2022/05/02 13:33:19;;;;;;;;;;;;;;;18.46;43.07;102108.16;4977339;28;19914;-79
2022/05/02 13:35:45;;;;;;;;;;;;;;;18.47;43.25;102107.31;4977535;28;19914;-79
2022/05/02 13:38:11;;;;;;;;;;;;;;;18.48;43.25;102112.50;4943825;28;20012;-79
2022/05/02 13:40:51;;;;;;;;;;;;;;;18.47;43.06;102100.34;4959636;28;19914;-79
2022/05/02 13:43:18;;;;;;;;;;;;;;;18.49;43.04;102096.03;4960299;28;19981;-79
2022/05/02 13:45:51;;;;;;;;;;;;;;;18.50;43.11;102104.72;4960335;28;19961;-79
2022/05/02 13:48:26;;;;;;;;;;;;;;;18.50;43.24;102097.75;4961502;28;19918;-79
2022/05/02 13:51:00;;;;;;;;;;;;;;;18.50;43.21;102100.38;4959967;28;20385;-78
2022/05/02 13:53:34;;;;;;;;;;;;;;;18.51;43.07;102096.03;4959969;28;19917;-79
2022/05/02 13:56:18;;;;;;;;;;;;;;;18.52;43.14;102087.34;4959835;28;19965;-79
2022/05/02 13:59:02;;;;;;;;;;;;;;;18.52;43.21;102086.47;4961267;28;19926;-79
2022/05/02 14:01:42;;;;;;;;;;;;;;;18.53;43.01;102075.19;4959573;28;19914;-79
2022/05/02 14:04:21;;;;;;;;;;;;;;;18.53;43.16;102088.22;4959770;28;19953;-79
2022/05/02 14:09:39;;;;;;;;;;;;;;;18.55;43.04;102081.28;4978588;28;20028;-79
2022/05/02 14:12:05;;;;;;;;;;;;;;;18.55;43.05;102076.94;4959348;28;19921;-78
2022/05/02 14:14:30;;;;;;;;;;;;;;;18.56;43.26;102078.69;4959508;28;19918;-79
2022/05/02 14:16:55;;;;;;;;;;;;;;;18.56;43.12;102073.47;4959378;28;20266;-79
2022/05/02 14:19:22;;;;;;;;;;;;;;;18.57;43.22;102072.59;4943159;28;19957;-79
2022/05/02 14:21:50;;;;;;;;;;;;;;;18.58;43.17;102078.72;4960394;28;19956;-79
2022/05/02 14:24:15;;;;;;;;;;;;;;;18.58;43.25;102073.50;4959260;28;19914;-79
2022/05/02 14:26:41;;;;;;;;;;;;;;;18.58;43.17;102076.97;4959140;28;19914;-79
2022/05/02 14:29:08;;;;;;;;;;;;;;;18.59;43.28;102076.09;4959369;28;20270;-78
2022/05/02 14:31:37;;;;;;;;;;;;;;;18.61;43.17;102083.94;4976579;28;19925;-79
2022/05/02 14:34:07;;;;;;;;;;;;;;;18.61;43.24;102073.50;4959933;28;19914;-78
2022/05/02 14:36:35;;;;;;;;;;;;;;;18.61;43.25;102070.91;4959128;28;19913;-78
2022/05/02 14:39:01;;;;;;;;;;;;;;;18.61;43.16;102087.41;4959643;28;19925;-78
2022/05/02 14:41:27;;;;;;;;;;;;;;;18.62;43.29;102075.25;4959350;28;19914;-78
2022/05/02 14:43:53;;;;;;;;;;;;;;;18.63;43.37;102071.78;4959017;28;19918;-79
2022/05/02 14:46:20;;;;;;;;;;;;;;;18.63;43.36;102085.69;4976413;28;20365;-79
2022/05/02 14:48:48;;;;;;;;;;;;;;;18.64;43.32;102077.00;4959243;28;19926;-79
2022/05/02 14:51:13;;;;;;;;;;;;;;;18.64;43.44;102087.44;4957978;28;19944;-79
2022/05/02 14:53:40;;;;;;;;;;;;;;;18.65;43.22;102086.56;4943236;28;20008;-79
2022/05/02 14:56:26;;;;;;;;;;;;;;;18.66;43.19;102096.16;4960438;28;19921;-79
2022/05/02 14:58:53;;;;;;;;;;;;;;;18.66;43.45;102090.94;4964146;28;19922;-79
2022/05/02 15:01:18;;;;;;;;;;;;;;;18.67;43.39;102092.66;4986023;28;19918;-79
2022/05/02 15:03:46;;;;;;;;;;;;;;;18.68;43.29;102089.19;4965883;28;20009;-79
2022/05/02 15:06:12;;;;;;;;;;;;;;;18.68;43.38;102091.81;4982202;28;19968;-79
2022/05/02 15:08:38;;;;;;;;;;;;;;;18.68;43.52;102083.09;4948240;28;19981;-79
2022/05/02 15:11:41;;;;;;;;;;;;;;;18.68;43.21;102094.41;4961037;28;19918;-79
2022/05/02 15:14:07;;;;;;;;;;;;;;;18.69;43.27;102079.63;4901344;29;19911;-79
2022/05/02 15:16:51;;;;;;;;;;;;;;;18.68;43.40;102094.41;4901609;29;20286;-79
2022/05/02 15:19:36;;;;;;;;;;;;;;;18.69;43.38;102088.31;4935061;28;20012;-79
2022/05/02 15:22:20;;;;;;;;;;;;;;;18.69;43.35;102085.72;4976838;28;19953;-79
2022/05/02 15:24:54;;;;;;;;;;;;;;;18.70;43.31;102074.44;4959977;28;20292;-79
2022/05/02 15:38:58;;;;;;;;;;;;;;;18.71;43.39;102078.78;4961941;28;19982;-79
2022/05/02 15:41:52;;;;;;;;;;;;;;;18.72;43.61;102079.63;4958646;28;19915;-79
2022/05/02 15:44:21;;;;;;;;;;;;;;;18.73;43.61;102080.50;4958503;28;19914;-79
2022/05/02 15:46:48;;;;;;;;;;;;;;;18.73;43.57;102076.19;4977129;28;19995;-79
2022/05/02 15:49:14;;;;;;;;;;;;;;;18.74;43.49;102079.66;4959766;28;19920;-79
2022/05/02 15:51:44;;;;;;;;;;;;;;;18.74;43.61;102077.06;4959528;28;19922;-79
2022/05/02 15:54:18;;;;;;;;;;;;;;;18.74;43.50;102072.69;4959736;28;19914;-79